Time;durP1;ratioP1;P1;durP2;ratioP2;P2;SDS_P1;SDS_P2;PMS_P1;PMS_P2;Temp;Humidity;BMP_temperature;BMP_pressure;BME280_temperature;BME280_humidity;BME280_pressure;Samples;Min_cycle;Max_cycle;Signal;HPM_P1;HPM_P2
2022/10/12 00:01:17;;;;;;;24.77;14.48;;;;;;;15.46;55.88;94384.53;5044728;28;20583;-79
2022/10/12 00:03:43;;;;;;;28.02;15.82;;;;;;;15.76;56.24;94438.81;5046653;28;20032;-79
2022/10/12 00:06:14;;;;;;;27.48;15.63;;;;;;;15.62;56.04;94414.19;5045918;28;20101;-79
2022/10/12 00:08:40;;;;;;;24.63;15.77;;;;;;;15.64;56.46;94425.38;5039468;28;20012;-79
2022/10/12 00:11:09;;;;;;;26.50;15.63;;;;;;;15.80;56.07;94437.03;5050454;28;20603;-79
2022/10/12 00:13:35;;;;;;;23.48;14.55;;;;;;;15.79;56.29;94440.84;5049108;28;20068;-79
2022/10/12 00:16:08;;;;;;;21.95;13.98;;;;;;;15.56;56.48;94412.81;5044261;28;20127;-80
2022/10/12 00:18:34;;;;;;;27.40;16.05;;;;;;;15.76;56.21;94436.13;5045605;28;20110;-80
2022/10/12 00:21:19;;;;;;;23.02;13.98;;;;;;;15.70;56.25;94424.03;5046686;28;20452;-79
2022/10/12 00:23:45;;;;;;;22.60;14.52;;;;;;;15.78;56.07;94425.88;5030206;28;20024;-79
2022/10/12 00:26:14;;;;;;;21.90;14.95;;;;;;;15.76;56.27;94428.09;5046151;28;20035;-79
2022/10/12 00:28:39;;;;;;;22.35;14.57;;;;;;;15.62;56.28;94411.50;5045942;28;20139;-79
2022/10/12 00:31:11;;;;;;;23.42;14.18;;;;;;;15.67;56.46;94433.53;5040225;28;20032;-79
2022/10/12 00:33:37;;;;;;;24.35;15.88;;;;;;;15.46;56.48;94398.72;5047795;28;20040;-80
2022/10/12 00:36:15;;;;;;;23.13;14.30;;;;;;;15.55;56.38;94408.59;5044736;28;20017;-79
2022/10/12 00:38:41;;;;;;;26.98;16.73;;;;;;;15.69;56.25;94425.19;5045540;28;20029;-80
2022/10/12 00:41:07;;;;;;;28.02;18.60;;;;;;;15.64;56.12;94414.66;5045360;28;20082;-79
2022/10/12 00:43:37;;;;;;;22.65;15.15;;;;;;;15.72;56.43;94422.59;5051452;28;20024;-79
2022/10/12 00:46:10;;;;;;;25.63;16.73;;;;;;;15.74;56.35;94422.28;5048400;28;20056;-79
2022/10/12 00:48:37;;;;;;;24.20;16.08;;;;;;;15.75;56.42;94423.84;5046053;28;20107;-80
2022/10/12 00:51:03;;;;;;;27.33;15.52;;;;;;;15.74;56.44;94422.28;5047085;28;20029;-80
2022/10/12 00:53:35;;;;;;;25.90;16.27;;;;;;;15.74;56.32;94423.03;5047079;28;20028;-79
2022/10/12 00:56:05;;;;;;;25.45;15.82;;;;;;;15.70;56.05;94418.69;5046986;28;20025;-79
2022/10/12 00:58:32;;;;;;;23.60;15.13;;;;;;;15.60;56.16;94400.31;5059290;28;20024;-79
2022/10/12 01:01:01;;;;;;;22.33;15.02;;;;;;;15.74;56.15;94420.38;5048957;28;20024;-79
2022/10/12 01:03:27;;;;;;;22.42;14.32;;;;;;;15.73;55.92;94416.13;5045317;28;20206;-80
2022/10/12 01:05:53;;;;;;;18.08;12.90;;;;;;;15.56;55.87;94391.38;5044387;28;20031;-79
2022/10/12 01:08:19;;;;;;;22.48;14.88;;;;;;;15.67;56.14;94411.31;5045589;28;20021;-80
2022/10/12 01:10:44;;;;;;;29.08;15.68;;;;;;;15.62;56.09;94411.50;5046135;28;20117;-79
2022/10/12 01:13:11;;;;;;;22.58;14.15;;;;;;;15.64;56.18;94412.75;5063813;28;20044;-79
2022/10/12 01:16:03;;;;;;;25.50;14.75;;;;;;;15.65;56.30;94422.34;5068274;28;20074;-80
2022/10/12 01:18:50;;;;;;;27.05;16.80;;;;;;;15.61;56.33;94424.13;5053475;28;20390;-79
2022/10/12 01:21:20;;;;;;;24.00;14.25;;;;;;;15.60;56.20;94427.13;5065632;28;20024;-79
2022/10/12 01:24:04;;;;;;;24.48;14.57;;;;;;;15.62;56.12;94431.06;5045095;28;20036;-79
2022/10/12 01:26:44;;;;;;;30.42;17.98;;;;;;;15.65;56.16;94418.88;5066768;28;20028;-81
2022/10/12 01:29:28;;;;;;;24.45;16.10;;;;;;;15.62;56.35;94416.88;5068905;28;21238;-80
2022/10/12 01:32:20;;;;;;;28.20;18.05;;;;;;;15.48;56.22;94408.31;5070759;28;20083;-80
2022/10/12 01:34:57;;;;;;;30.63;19.20;;;;;;;15.19;56.54;94369.75;5070841;28;20032;-79
2022/10/12 01:37:47;;;;;;;24.95;16.15;;;;;;;15.55;56.47;94424.69;5050640;28;20499;-79
2022/10/12 01:40:23;;;;;;;28.30;18.13;;;;;;;15.52;56.27;94409.22;5071599;28;20024;-80
2022/10/12 01:42:48;;;;;;;24.17;16.25;;;;;;;15.46;56.17;94401.38;5052445;28;20033;-80
2022/10/12 01:45:18;;;;;;;23.15;14.52;;;;;;;15.40;56.28;94386.59;5067277;28;20536;-80
2022/10/12 01:47:51;;;;;;;29.45;16.33;;;;;;;15.55;56.61;94414.72;5069934;28;20052;-78
2022/10/12 01:50:20;;;;;;;27.15;17.40;;;;;;;15.61;56.29;94423.34;5069002;28;20031;-80
2022/10/12 01:53:21;;;;;;;24.92;15.15;;;;;;;15.63;56.45;94421.13;5068419;28;20028;-80
2022/10/12 01:55:59;;;;;;;25.10;15.50;;;;;;;15.63;56.54;94421.91;5046199;28;20452;-78
2022/10/12 01:58:48;;;;;;;24.70;14.98;;;;;;;15.57;56.51;94412.50;5068370;28;20024;-79
2022/10/12 02:01:22;;;;;;;27.55;16.70;;;;;;;15.64;56.50;94423.47;5068841;28;20029;-79
2022/10/12 02:03:59;;;;;;;24.83;15.70;;;;;;;15.64;56.51;94426.16;5062945;28;20028;-79
2022/10/12 02:06:33;;;;;;;24.85;15.75;;;;;;;15.62;56.50;94425.69;5068970;28;20487;-79
2022/10/12 02:09:05;;;;;;;26.55;16.73;;;;;;;15.42;56.45;94400.47;5070023;28;20021;-79
2022/10/12 02:11:36;;;;;;;24.65;15.48;;;;;;;15.51;56.45;94411.13;5071600;28;20056;-80
2022/10/12 02:14:20;;;;;;;24.67;16.58;;;;;;;15.47;56.44;94423.63;5048652;28;20499;-80
2022/10/12 02:16:58;;;;;;;27.52;17.40;;;;;;;15.45;57.04;94434.66;5068678;28;20543;-79
2022/10/12 02:19:28;;;;;;;28.75;16.88;;;;;;;15.52;56.63;94438.72;5068609;28;20456;-79
2022/10/12 02:21:58;;;;;;;25.02;16.75;;;;;;;15.52;56.84;94428.00;5066800;28;20027;-80
2022/10/12 02:24:25;;;;;;;26.27;15.70;;;;;;;15.57;56.90;94446.56;5055833;28;20447;-79
2022/10/12 02:26:52;;;;;;;30.95;16.02;;;;;;;15.29;57.34;94412.25;5066462;28;20025;-80
2022/10/12 02:29:36;;;;;;;27.77;16.45;;;;;;;15.47;57.29;94450.44;5057139;28;20486;-80
2022/10/12 02:32:27;;;;;;;27.50;16.58;;;;;;;15.45;57.07;94442.72;5069828;28;20028;-80
2022/10/12 02:35:00;;;;;;;32.10;18.80;;;;;;;15.27;57.21;94417.13;5068994;28;20040;-79
2022/10/12 02:37:40;;;;;;;28.73;16.10;;;;;;;15.25;56.96;94405.97;5068248;28;20031;-79
2022/10/12 02:40:06;;;;;;;30.80;17.73;;;;;;;15.52;56.93;94446.75;5069492;28;20451;-79
2022/10/12 02:42:37;;;;;;;30.00;16.67;;;;;;;15.55;56.78;94449.56;5057473;28;20103;-79
2022/10/12 02:45:07;;;;;;;24.77;15.65;;;;;;;15.55;56.89;94446.13;5053593;28;20056;-80
2022/10/12 02:47:34;;;;;;;28.85;17.17;;;;;;;15.43;57.21;94434.19;5070162;28;20020;-79
2022/10/12 02:50:01;;;;;;;27.55;16.80;;;;;;;15.51;57.17;94442.50;5054150;28;20095;-79
2022/10/12 02:52:28;;;;;;;24.25;15.38;;;;;;;15.43;57.21;94439.56;5056109;28;20020;-79
2022/10/12 02:54:54;;;;;;;28.60;16.45;;;;;;;15.35;57.30;94421.63;5067804;28;20016;-80
2022/10/12 02:57:19;;;;;;;27.23;17.20;;;;;;;15.34;57.09;94422.75;5067911;28;20016;-79
2022/10/12 02:59:44;;;;;;;27.48;15.23;;;;;;;15.40;57.11;94421.44;5068286;28;20036;-79
2022/10/12 03:02:10;;;;;;;26.38;16.15;;;;;;;15.43;56.87;94426.16;5053114;28;20028;-80
2022/10/12 03:04:36;;;;;;;25.13;16.48;;;;;;;15.27;57.13;94398.38;5067210;28;20623;-81
2022/10/12 03:07:02;;;;;;;27.45;17.15;;;;;;;15.52;56.95;94441.41;5069978;28;20509;-80
2022/10/12 03:09:27;;;;;;;32.17;18.05;;;;;;;15.41;57.03;94425.69;5068363;28;20087;-80
2022/10/12 03:11:52;;;;;;;27.98;16.13;;;;;;;15.40;57.14;94418.00;5052721;28;20053;-79
2022/10/12 03:14:18;;;;;;;26.95;14.80;;;;;;;15.49;57.01;94436.72;5065075;28;20124;-79
2022/10/12 03:16:45;;;;;;;27.80;17.25;;;;;;;15.39;57.19;94419.88;5046876;28;20071;-79
2022/10/12 03:19:11;;;;;;;27.88;16.58;;;;;;;15.49;57.02;94431.34;5064272;28;20036;-80
2022/10/12 03:21:36;;;;;;;27.88;16.77;;;;;;;15.55;57.07;94435.41;5066841;28;20028;-79
2022/10/12 03:24:01;;;;;;;29.35;16.98;;;;;;;15.50;57.22;94424.88;5069722;28;20407;-79
2022/10/12 03:26:27;;;;;;;24.45;15.35;;;;;;;15.45;57.22;94415.91;5069371;28;20526;-79
2022/10/12 03:28:52;;;;;;;29.08;18.27;;;;;;;15.51;57.03;94426.44;5046552;28;20020;-79
2022/10/12 03:31:17;;;;;;;30.52;16.40;;;;;;;15.32;57.10;94406.22;5066167;28;20049;-79
2022/10/12 03:33:43;;;;;;;31.65;17.67;;;;;;;15.56;57.20;94434.25;5052358;28;20406;-80
2022/10/12 03:36:08;;;;;;;33.38;18.60;;;;;;;15.48;57.08;94433.25;5064432;28;20107;-79
2022/10/12 03:38:34;;;;;;;25.70;15.77;;;;;;;15.54;57.25;94441.88;5066573;28;20043;-79
2022/10/12 03:41:00;;;;;;;25.40;16.30;;;;;;;15.51;57.13;94448.66;5069755;28;20015;-79
2022/10/12 03:43:25;;;;;;;27.50;15.77;;;;;;;15.44;57.41;94446.53;5068235;28;20054;-79
2022/10/12 03:45:51;;;;;;;28.27;16.23;;;;;;;15.39;57.43;94437.88;5066756;28;20051;-80
2022/10/12 03:48:17;;;;;;;24.20;15.93;;;;;;;15.27;57.50;94419.81;5065704;28;20786;-79
2022/10/12 03:50:50;;;;;;;27.10;17.95;;;;;;;15.41;57.61;94439.09;5067624;28;20040;-79
2022/10/12 03:53:17;;;;;;;29.92;14.85;;;;;;;15.28;57.43;94421.38;5047483;28;20024;-80
2022/10/12 03:55:43;;;;;;;25.73;15.88;;;;;;;15.22;57.80;94411.97;5067509;28;20086;-79
2022/10/12 03:58:08;;;;;;;26.05;15.85;;;;;;;15.29;57.67;94427.53;5068785;28;20032;-80
2022/10/12 04:00:34;;;;;;;26.52;16.02;;;;;;;15.32;57.65;94433.00;5050491;28;20035;-80
2022/10/12 04:03:01;;;;;;;22.52;14.50;;;;;;;15.29;57.57;94433.69;5065025;28;20020;-79
2022/10/12 04:05:26;;;;;;;25.42;16.65;;;;;;;15.35;57.66;94432.34;5055194;28;20090;-79
2022/10/12 04:07:52;;;;;;;26.20;16.77;;;;;;;15.32;57.69;94435.69;5065157;28;20098;-80
2022/10/12 04:10:17;;;;;;;25.60;15.98;;;;;;;15.36;57.37;94439.28;5066620;28;20479;-80
2022/10/12 04:12:43;;;;;;;24.77;15.23;;;;;;;15.19;57.52;94418.00;5067060;28;20889;-78
2022/10/12 04:15:08;;;;;;;24.70;15.15;;;;;;;15.34;57.64;94436.16;5066904;28;20027;-79
2022/10/12 04:17:34;;;;;;;26.83;15.32;;;;;;;15.14;57.79;94409.38;5047531;28;20184;-80
2022/10/12 04:19:59;;;;;;;22.70;13.95;;;;;;;15.35;57.76;94445.75;5052785;28;20559;-79
2022/10/12 04:22:25;;;;;;;28.20;15.82;;;;;;;15.26;57.85;94434.31;5064612;28;20029;-79
2022/10/12 04:24:50;;;;;;;24.77;15.00;;;;;;;15.14;57.86;94409.38;5067180;28;20036;-80
2022/10/12 04:27:16;;;;;;;28.10;16.85;;;;;;;15.32;57.80;94453.66;5051343;28;20020;-79
2022/10/12 04:29:41;;;;;;;24.95;14.55;;;;;;;15.30;57.91;94459.34;5066064;28;20993;-79
2022/10/12 04:32:07;;;;;;;30.00;16.52;;;;;;;15.08;58.15;94427.53;5052275;28;20024;-79
2022/10/12 04:34:34;;;;;;;27.58;15.73;;;;;;;15.16;58.22;94439.28;5065410;28;20560;-79
2022/10/12 04:37:00;;;;;;;28.00;15.98;;;;;;;15.18;57.98;94440.53;5064840;28;20032;-79
2022/10/12 04:39:25;;;;;;;27.05;16.20;;;;;;;15.23;58.32;94459.09;5067542;28;20028;-79
2022/10/12 04:41:51;;;;;;;31.83;16.85;;;;;;;15.19;58.49;94447.47;5065247;28;20474;-81
2022/10/12 04:44:16;;;;;;;28.45;17.92;;;;;;;15.06;58.21;94427.06;5066212;28;20070;-79
2022/10/12 04:46:41;;;;;;;31.52;17.58;;;;;;;15.29;58.23;94465.84;5066083;28;20512;-80
2022/10/12 04:49:07;;;;;;;27.42;17.27;;;;;;;15.32;58.18;94465.19;5065106;28;20503;-79
2022/10/12 04:51:32;;;;;;;34.58;17.15;;;;;;;15.31;58.38;94468.97;5046812;28;20320;-79
2022/10/12 04:53:58;;;;;;;26.38;17.02;;;;;;;15.34;58.46;94472.91;5067738;28;20025;-79
2022/10/12 04:56:23;;;;;;;29.00;18.77;;;;;;;15.37;58.24;94475.69;5047472;28;20089;-79
2022/10/12 04:58:49;;;;;;;26.65;17.90;;;;;;;15.27;58.23;94456.53;5052222;28;20060;-80
2022/10/12 05:01:14;;;;;;;28.55;19.02;;;;;;;15.25;58.52;94454.22;5050568;28;20020;-80
2022/10/12 05:03:40;;;;;;;26.30;15.98;;;;;;;15.38;58.50;94479.16;5070050;28;20038;-79
2022/10/12 05:06:05;;;;;;;27.98;16.42;;;;;;;15.33;58.59;94466.75;5070390;28;20052;-79
2022/10/12 05:08:31;;;;;;;26.02;16.50;;;;;;;15.36;58.58;94482.16;5070542;28;20482;-80
2022/10/12 05:10:58;;;;;;;28.42;17.35;;;;;;;15.34;58.69;94478.25;5063582;28;20036;-79
2022/10/12 05:13:24;;;;;;;35.08;17.15;;;;;;;15.27;58.56;94473.41;5055607;28;20025;-79
2022/10/12 05:15:49;;;;;;;26.75;17.60;;;;;;;15.32;58.68;94483.16;5050468;28;20085;-79
2022/10/12 05:18:15;;;;;;;32.03;18.98;;;;;;;15.28;58.57;94477.66;5066616;28;20039;-80
2022/10/12 05:20:40;;;;;;;28.45;17.45;;;;;;;15.30;58.71;94483.47;5070669;28;20028;-79
2022/10/12 05:23:06;;;;;;;28.23;17.70;;;;;;;15.20;58.32;94478.53;5069629;28;20426;-79
2022/10/12 05:25:31;;;;;;;31.77;18.52;;;;;;;15.29;58.58;94486.50;5069818;28;20070;-80
2022/10/12 05:27:57;;;;;;;29.13;18.98;;;;;;;15.29;58.63;94491.84;5071000;28;20038;-80
2022/10/12 05:30:23;;;;;;;34.03;19.52;;;;;;;15.26;58.62;94495.94;5069005;28;20127;-80
2022/10/12 05:32:48;;;;;;;33.30;18.55;;;;;;;15.29;58.53;94500.69;5070798;28;20024;-80
2022/10/12 05:35:14;;;;;;;39.55;21.50;;;;;;;15.13;58.75;94474.78;5070173;28;20537;-79
2022/10/12 05:37:39;;;;;;;31.92;17.73;;;;;;;15.29;58.76;94502.56;5069779;28;20142;-79
2022/10/12 05:40:06;;;;;;;31.92;18.15;;;;;;;15.31;58.80;94500.34;5069626;28;20063;-79
2022/10/12 05:42:33;;;;;;;34.47;19.33;;;;;;;15.27;59.20;94497.53;5068833;28;20050;-79
2022/10/12 05:44:59;;;;;;;31.95;19.08;;;;;;;15.26;58.71;94482.56;5070805;28;20106;-79
2022/10/12 05:47:24;;;;;;;30.02;17.73;;;;;;;15.20;58.59;94469.69;5069030;28;20016;-79
2022/10/12 05:49:50;;;;;;;32.45;19.65;;;;;;;15.37;58.72;94502.50;5068517;28;20204;-79
2022/10/12 05:52:15;;;;;;;44.58;24.27;;;;;;;15.31;58.66;94489.63;5070561;28;20031;-79
2022/10/12 05:54:41;;;;;;;42.35;22.95;;;;;;;15.40;59.00;94506.44;5070300;28;20034;-79
2022/10/12 05:57:06;;;;;;;39.58;22.83;;;;;;;15.35;59.12;94502.03;5071041;28;20058;-78
2022/10/12 05:59:32;;;;;;;34.85;21.52;;;;;;;15.42;59.03;94513.03;5067883;28;20115;-79
2022/10/12 06:01:57;;;;;;;31.20;18.65;;;;;;;15.28;59.08;94491.06;5049892;28;20025;-79
2022/10/12 06:04:22;;;;;;;37.33;20.75;;;;;;;15.23;58.96;94485.91;5066279;28;20036;-79
2022/10/12 06:06:48;;;;;;;33.60;19.92;;;;;;;15.49;58.96;94522.50;5054508;28;20024;-79
2022/10/12 06:09:13;;;;;;;31.83;17.92;;;;;;;15.30;58.82;94496.88;5065488;28;20052;-79
2022/10/12 06:11:39;;;;;;;34.85;20.45;;;;;;;15.24;58.65;94490.16;5068811;28;20091;-79
2022/10/12 06:14:04;;;;;;;34.80;20.90;;;;;;;15.36;58.35;94506.28;5070342;28;20028;-79
2022/10/12 06:16:30;;;;;;;30.40;19.45;;;;;;;15.46;58.46;94518.56;5069072;28;21183;-79
2022/10/12 06:18:55;;;;;;;30.92;19.30;;;;;;;15.58;58.43;94531.25;5070177;28;21253;-79
2022/10/12 06:21:21;;;;;;;34.25;19.33;;;;;;;15.40;58.79;94514.50;5067643;28;20117;-79
2022/10/12 06:23:46;;;;;;;33.58;17.88;;;;;;;15.34;58.66;94495.13;5068838;28;20058;-79
2022/10/12 06:26:11;;;;;;;33.95;19.05;;;;;;;15.60;58.56;94534.38;5049275;28;20366;-79
2022/10/12 06:28:37;;;;;;;32.63;17.05;;;;;;;15.28;58.34;94493.75;5070024;28;20110;-79
2022/10/12 06:31:05;;;;;;;28.75;17.85;;;;;;;15.58;58.48;94542.75;5069472;28;20044;-79
2022/10/12 06:33:31;;;;;;;30.23;17.20;;;;;;;15.43;58.55;94516.50;5068411;28;20067;-80
2022/10/12 06:35:56;;;;;;;27.90;17.58;;;;;;;15.56;58.77;94544.97;5069553;28;20108;-79
2022/10/12 06:38:22;;;;;;;37.25;18.45;;;;;;;15.29;58.72;94498.00;5068620;28;20346;-80
2022/10/12 06:40:47;;;;;;;31.38;18.80;;;;;;;15.52;58.74;94532.56;5067878;28;20033;-79
2022/10/12 06:43:13;;;;;;;28.75;17.75;;;;;;;15.41;58.41;94511.47;5065395;28;20024;-80
2022/10/12 06:45:39;;;;;;;38.63;19.25;;;;;;;15.42;58.28;94509.56;5067931;28;20032;-79
2022/10/12 06:48:05;;;;;;;29.75;17.85;;;;;;;15.59;58.54;94533.63;5068280;28;20020;-79
2022/10/12 06:50:31;;;;;;;29.35;18.77;;;;;;;15.70;58.52;94555.44;5047815;28;20036;-79
2022/10/12 06:52:56;;;;;;;29.70;18.52;;;;;;;15.65;58.78;94548.38;5046510;28;20028;-79
2022/10/12 06:55:21;;;;;;;30.30;18.27;;;;;;;15.64;58.64;94549.50;5067093;28;20313;-80
2022/10/12 06:57:47;;;;;;;26.88;17.23;;;;;;;15.69;58.82;94549.31;5067501;28;20028;-79
2022/10/12 07:00:13;;;;;;;25.65;16.98;;;;;;;15.65;58.26;94542.22;5067168;28;20033;-80
2022/10/12 07:02:39;;;;;;;23.88;15.23;;;;;;;15.70;58.49;94563.47;5066179;28;20047;-79
2022/10/12 07:05:06;;;;;;;23.35;16.13;;;;;;;15.71;58.47;94562.38;5043923;28;20028;-80
2022/10/12 07:07:33;;;;;;;21.95;14.52;;;;;;;15.66;58.71;94555.31;5067333;28;20055;-79
2022/10/12 07:09:59;;;;;;;27.25;16.45;;;;;;;15.54;58.24;94538.38;5062757;28;20077;-79
2022/10/12 07:12:25;;;;;;;23.48;14.05;;;;;;;15.69;58.10;94564.63;5051874;28;20048;-79
2022/10/12 07:14:50;;;;;;;24.70;15.45;;;;;;;15.73;58.08;94560.16;5067121;28;20154;-79
2022/10/12 07:17:16;;;;;;;24.92;15.10;;;;;;;15.59;58.34;94536.28;5053582;28;20029;-79
2022/10/12 07:19:41;;;;;;;30.23;16.52;;;;;;;15.73;58.17;94560.16;5066581;28;20034;-79
2022/10/12 07:22:07;;;;;;;31.10;19.77;;;;;;;15.59;58.31;94532.81;5066377;28;20464;-80
2022/10/12 07:24:35;;;;;;;29.80;18.25;;;;;;;15.59;57.92;94532.81;5068664;28;20459;-79
2022/10/12 07:27:06;;;;;;;27.52;16.35;;;;;;;15.77;58.00;94561.88;5067711;28;20027;-78
2022/10/12 07:29:32;;;;;;;22.83;15.35;;;;;;;15.77;57.74;94567.22;5050301;28;20316;-79
2022/10/12 07:31:58;;;;;;;24.50;15.55;;;;;;;15.77;57.98;94558.41;5046780;28;20499;-79
2022/10/12 07:34:27;;;;;;;22.80;15.23;;;;;;;15.69;57.87;94551.22;5062318;28;20036;-79
2022/10/12 07:36:53;;;;;;;20.02;14.60;;;;;;;15.76;57.90;94562.19;5062506;28;20476;-79
2022/10/12 07:39:19;;;;;;;25.63;15.48;;;;;;;15.64;57.98;94551.41;5063869;28;20035;-79
2022/10/12 07:41:44;;;;;;;32.05;15.85;;;;;;;15.50;58.02;94529.44;5044433;28;20064;-79
2022/10/12 07:44:11;;;;;;;25.70;14.60;;;;;;;15.58;58.00;94553.50;5059034;28;20172;-79
2022/10/12 07:46:36;;;;;;;20.30;13.20;;;;;;;15.68;58.38;94558.47;5064410;28;20397;-79
2022/10/12 07:49:02;;;;;;;22.60;13.77;;;;;;;15.73;58.08;94565.53;5042352;28;20128;-79
2022/10/12 07:51:28;;;;;;;31.27;14.60;;;;;;;15.81;58.08;94570.03;5062208;28;20031;-79
2022/10/12 07:53:54;;;;;;;21.88;13.57;;;;;;;15.58;57.61;94541.97;5062617;28;20028;-80
2022/10/12 07:56:19;;;;;;;22.70;14.88;;;;;;;15.84;57.95;94569.41;5064259;28;20024;-79
2022/10/12 07:58:50;;;;;;;19.23;13.60;;;;;;;15.85;57.80;94582.47;5063339;28;20624;-79
2022/10/12 08:01:16;;;;;;;16.25;12.18;;;;;;;15.82;57.41;94566.25;5063626;28;20023;-79
2022/10/12 08:03:42;;;;;;;23.52;14.77;;;;;;;15.86;57.14;94561.78;5064148;28;20379;-79
2022/10/12 08:06:12;;;;;;;19.85;13.52;;;;;;;15.93;57.18;94570.09;5062298;28;20032;-80
2022/10/12 08:08:38;;;;;;;24.10;13.13;;;;;;;15.90;57.10;94573.44;5065247;28;20497;-79
2022/10/12 08:11:04;;;;;;;19.45;13.35;;;;;;;15.78;57.21;94546.56;5064092;28;20060;-79
2022/10/12 08:13:31;;;;;;;20.85;13.63;;;;;;;15.85;57.27;94549.47;5063010;28;20028;-79
2022/10/12 08:15:56;;;;;;;17.05;10.70;;;;;;;15.95;56.21;94567.06;5064026;28;20492;-79
2022/10/12 08:18:21;;;;;;;18.27;10.13;;;;;;;15.98;55.90;94575.28;5048334;28;20199;-78
2022/10/12 08:20:47;;;;;;;17.00;10.80;;;;;;;15.88;55.97;94562.25;5041329;28;20024;-79
2022/10/12 08:23:12;;;;;;;15.77;10.75;;;;;;;15.99;56.10;94565.34;5060830;28;20039;-80
2022/10/12 08:25:38;;;;;;;18.48;10.38;;;;;;;15.88;56.17;94541.59;5063470;28;20487;-79
2022/10/12 08:28:04;;;;;;;18.02;11.45;;;;;;;16.06;55.98;94557.53;5063618;28;20650;-80
2022/10/12 08:30:31;;;;;;;16.88;10.85;;;;;;;15.99;56.32;94551.91;5050593;28;20499;-79
2022/10/12 08:32:57;;;;;;;19.52;11.48;;;;;;;16.06;56.33;94557.53;5064295;28;20016;-79
2022/10/12 08:35:22;;;;;;;17.77;11.02;;;;;;;15.84;56.17;94516.50;5062659;28;20605;-79
2022/10/12 08:37:47;;;;;;;17.33;11.27;;;;;;;16.10;56.45;94559.22;5062563;28;20028;-79
2022/10/12 08:40:22;;;;;;;15.70;10.57;;;;;;;16.20;55.97;94569.53;5062198;28;20031;-79
2022/10/12 08:42:47;;;;;;;19.27;11.32;;;;;;;16.19;56.01;94567.19;5062650;28;20052;-79
2022/10/12 08:45:26;;;;;;;14.48;9.85;;;;;;;16.17;55.86;94554.13;5061964;28;20131;-79
2022/10/12 08:47:57;;;;;;;16.35;9.88;;;;;;;16.20;55.41;94558.81;5063246;28;20017;-79
2022/10/12 08:50:34;;;;;;;14.27;8.63;;;;;;;15.99;55.18;94528.53;5063247;28;20055;-79
2022/10/12 08:53:10;;;;;;;12.80;8.70;;;;;;;16.06;54.92;94536.06;5062455;28;20108;-79
2022/10/12 08:55:42;;;;;;;14.77;8.85;;;;;;;16.23;55.20;94557.38;5064954;28;20098;-78
2022/10/12 08:58:20;;;;;;;15.80;8.38;;;;;;;16.03;54.73;94547.47;5061291;28;20946;-79
2022/10/12 09:01:20;;;;;;;13.90;8.65;;;;;;;15.94;54.81;94531.41;5043471;28;20280;-78
2022/10/12 09:04:01;;;;;;;13.05;8.60;;;;;;;16.17;54.71;94570.22;5049188;28;20024;-78
2022/10/12 09:06:32;;;;;;;15.35;8.55;;;;;;;16.16;55.14;94563.28;5044399;28;20107;-78
2022/10/12 09:09:01;;;;;;;22.40;9.50;;;;;;;16.00;55.42;94551.56;5062759;28;20532;-79
2022/10/12 09:11:33;;;;;;;14.95;9.32;;;;;;;16.09;55.64;94554.97;5049083;28;20572;-78
2022/10/12 09:14:10;;;;;;;19.90;10.32;;;;;;;16.06;55.61;94549.47;5063263;28;20024;-79
2022/10/12 09:16:41;;;;;;;18.55;10.40;;;;;;;15.56;55.90;94518.16;5050291;28;20537;-78
2022/10/12 09:19:35;;;;;;;16.27;10.40;;;;;;;15.86;56.37;94559.09;5062505;28;20098;-79
2022/10/12 09:22:02;;;;;;;13.52;9.07;;;;;;;15.75;56.05;94555.25;5061951;28;20062;-78
2022/10/12 09:24:35;;;;;;;18.10;9.45;;;;;;;15.77;56.42;94556.50;5062875;28;20016;-78
2022/10/12 09:27:11;;;;;;;17.33;10.50;;;;;;;15.58;56.09;94531.25;5048223;28;20028;-79
2022/10/12 09:29:37;;;;;;;14.48;9.05;;;;;;;15.69;56.35;94543.16;5058423;28;20098;-78
2022/10/12 09:32:40;;;;;;;17.38;9.07;;;;;;;15.75;56.45;94557.94;5042640;28;20491;-79
2022/10/12 09:35:09;;;;;;;16.95;9.27;;;;;;;15.25;55.93;94515.06;5034500;28;20025;-79
2022/10/12 09:37:35;;;;;;;11.07;8.13;;;;;;;15.32;56.40;94534.06;5040361;28;20060;-79
2022/10/12 09:40:01;;;;;;;13.38;8.73;;;;;;;15.25;56.82;94533.81;5042073;28;20113;-79
2022/10/12 09:42:26;;;;;;;13.82;9.15;;;;;;;15.50;57.66;94558.91;5041852;28;20024;-78
2022/10/12 09:45:11;;;;;;;15.05;9.77;;;;;;;15.57;57.57;94569.88;5021699;28;20112;-78
2022/10/12 09:47:36;;;;;;;11.13;8.50;;;;;;;15.43;57.64;94541.41;5029170;28;20523;-78
2022/10/12 09:50:04;;;;;;;15.57;8.90;;;;;;;15.63;57.59;94549.81;5045717;28;20024;-79
2022/10/12 09:52:42;;;;;;;15.65;8.57;;;;;;;15.56;56.89;94549.53;5044528;28;20028;-78
2022/10/12 09:55:14;;;;;;;16.25;9.05;;;;;;;15.69;56.56;94561.94;5024556;28;20028;-79
2022/10/12 09:57:50;;;;;;;13.90;9.38;;;;;;;15.60;57.02;94545.09;5029666;28;20033;-78
2022/10/12 10:01:05;;;;;;;13.75;8.95;;;;;;;15.78;57.28;94559.97;5040029;28;20036;-79
2022/10/12 10:03:30;;;;;;;14.38;9.80;;;;;;;15.53;56.95;94550.22;5031595;28;20835;-79
2022/10/12 10:06:03;;;;;;;17.98;9.30;;;;;;;15.76;57.36;94554.13;5042850;28;20020;-78
2022/10/12 10:08:38;;;;;;;21.63;10.95;;;;;;;15.80;57.01;94549.69;5041358;28;20033;-79
2022/10/12 10:11:04;;;;;;;16.83;11.02;;;;;;;15.82;57.02;94550.16;5042715;28;20651;-78
2022/10/12 10:13:34;;;;;;;16.23;9.52;;;;;;;15.86;57.40;94541.13;5025477;28;20032;-79
2022/10/12 10:16:10;;;;;;;16.27;10.07;;;;;;;15.87;57.88;94552.63;5022915;28;20370;-78
2022/10/12 10:18:46;;;;;;;18.27;11.27;;;;;;;15.91;57.63;94542.81;5022311;28;20123;-79
2022/10/12 10:21:13;;;;;;;18.10;10.13;;;;;;;15.78;57.98;94525.09;5045417;28;20993;-80
2022/10/12 10:23:48;;;;;;;18.10;10.05;;;;;;;15.75;57.92;94504.28;5027854;28;20819;-79
2022/10/12 10:26:16;;;;;;;16.73;10.88;;;;;;;16.08;57.87;94529.25;5042753;28;20028;-79
2022/10/12 10:28:44;;;;;;;15.63;10.45;;;;;;;16.13;57.88;94534.44;5042135;28;20127;-79
2022/10/12 10:31:12;;;;;;;18.95;9.52;;;;;;;16.23;57.50;94533.97;5042465;28;20267;-79
2022/10/12 10:33:39;;;;;;;12.07;8.10;;;;;;;16.04;55.83;94496.13;5041676;28;20028;-79
2022/10/12 10:36:25;;;;;;;14.35;9.00;;;;;;;16.25;55.50;94525.59;5043511;28;20078;-79
2022/10/12 10:38:50;;;;;;;12.30;8.85;;;;;;;16.08;56.10;94523.09;5042452;28;20055;-79
2022/10/12 10:41:19;;;;;;;17.30;9.25;;;;;;;15.87;55.86;94496.31;5024655;28;20496;-79
2022/10/12 10:43:48;;;;;;;12.43;7.55;;;;;;;15.77;55.79;94510.13;5043087;28;20029;-79
2022/10/12 10:46:20;;;;;;;13.88;8.68;;;;;;;15.81;56.10;94502.97;5043853;28;20610;-79
2022/10/12 10:49:00;;;;;;;13.05;7.53;;;;;;;15.65;56.63;94510.03;5046493;28;20136;-79
2022/10/12 10:51:50;;;;;;;14.32;8.02;;;;;;;15.69;57.13;94508.31;5042450;28;20416;-80
2022/10/12 10:54:24;;;;;;;15.25;8.68;;;;;;;15.55;57.17;94508.53;5043676;28;20154;-79
2022/10/12 10:57:01;;;;;;;14.02;9.43;;;;;;;15.29;58.02;94478.44;5044496;28;20551;-79
2022/10/12 10:59:39;;;;;;;13.50;8.55;;;;;;;15.42;58.13;94480.88;5043330;28;20032;-79
2022/10/12 11:02:26;;;;;;;10.70;7.60;;;;;;;15.49;58.16;94501.03;5042511;28;20123;-78
2022/10/12 11:05:16;;;;;;;12.95;8.07;;;;;;;15.21;57.97;94455.94;5042518;28;20035;-79
2022/10/12 11:08:05;;;;;;;11.18;7.65;;;;;;;15.52;58.09;94495.03;5032810;28;20493;-78
2022/10/12 11:10:40;;;;;;;10.85;6.97;;;;;;;15.71;57.22;94493.44;5026688;28;20032;-78
2022/10/12 11:13:21;;;;;;;10.43;7.28;;;;;;;15.78;56.79;94482.97;5041982;28;20048;-79
2022/10/12 11:15:56;;;;;;;13.07;8.50;;;;;;;15.93;56.54;94494.22;5042300;28;20068;-79
2022/10/12 11:18:33;;;;;;;12.43;8.05;;;;;;;15.95;56.54;94468.59;5042802;28;20017;-78
2022/10/12 11:21:05;;;;;;;12.10;7.97;;;;;;;16.01;55.70;94496.81;5022799;28;20252;-78
2022/10/12 11:23:41;;;;;;;12.77;8.52;;;;;;;16.02;56.13;94482.28;5022194;28;20029;-79
2022/10/12 11:26:16;;;;;;;11.32;7.75;;;;;;;16.22;56.12;94497.56;5040910;28;20025;-79
2022/10/12 11:28:42;;;;;;;11.85;8.48;;;;;;;16.18;55.82;94464.41;5042184;28;20269;-79
2022/10/12 11:31:18;;;;;;;12.77;8.80;;;;;;;15.94;55.20;94434.84;5042211;28;20032;-79